Terminal Aerodrome Forecast
Issued by NWS

Home | Current Version | Previous Version | Text Only | Print | Product List | Glossary On
Versions: 1 2 3 4 5 6 7 8 9 10 11 12 13 14 15 16 17 18 19 20 21
000
FTUS41 KALY 291722
TAFPSF
TAF
KPSF 291722Z 2918/3018 23006KT P6SM SCT040 BKN250
      TEMPO 2918/2922 BKN040 BKN250
     FM292300 VRB03KT P6SM SCT050 BKN250
     FM300500 00000KT 4SM BR SCT050 SCT120 BKN250
     FM300800 00000KT 3SM BR SCT050 BKN100
      TEMPO 3008/3011 1SM BR
     FM301300 27004KT P6SM BKN050 BKN100=

USA.gov is the U.S. government's official web portal to all federal, state and local government web resources and services.